createdAt,value
2019-02-27T00:01:45.069Z,39.07
2019-02-27T00:04:15.685Z,39.33
2019-02-27T00:06:48.013Z,37.70
2019-02-27T00:09:20.400Z,38.43
2019-02-27T00:11:50.801Z,37.40
2019-02-27T00:14:21.124Z,38.07
2019-02-27T00:16:51.598Z,37.43
2019-02-27T00:19:22.068Z,39.60
2019-02-27T00:21:54.120Z,39.33
2019-02-27T00:24:27.064Z,37.57
2019-02-27T00:26:58.907Z,38.67
2019-02-27T00:29:29.611Z,40.87
2019-02-27T00:32:00.036Z,38.73
2019-02-27T00:34:32.815Z,40.00
2019-02-27T00:37:02.608Z,41.83
2019-02-27T00:39:34.602Z,41.37
2019-02-27T00:42:06.684Z,41.87
2019-02-27T00:44:37.108Z,42.60
2019-02-27T00:47:07.570Z,43.77
2019-02-27T00:49:37.892Z,42.43
2019-02-27T00:52:08.396Z,44.03
2019-02-27T00:54:38.722Z,42.60
2019-02-27T00:57:09.062Z,40.97
2019-02-27T00:59:40.377Z,41.57
2019-02-27T01:02:10.744Z,41.13
2019-02-27T01:04:41.074Z,41.40
2019-02-27T01:07:11.693Z,41.50
2019-02-27T01:09:42.701Z,40.73
2019-02-27T01:12:13.170Z,41.23
2019-02-27T01:14:43.484Z,41.63
2019-02-27T01:17:13.893Z,39.83
2019-02-27T01:19:44.134Z,41.03
2019-02-27T01:22:14.608Z,40.10
2019-02-27T01:24:45.061Z,41.60
2019-02-27T01:27:15.393Z,40.83
2019-02-27T01:29:45.667Z,40.77
2019-02-27T01:32:15.953Z,40.27
2019-02-27T01:34:47.389Z,38.53
2019-02-27T01:37:17.734Z,40.53
2019-02-27T01:39:48.071Z,38.77
2019-02-27T01:42:18.334Z,39.83
2019-02-27T01:44:49.317Z,40.30
2019-02-27T01:47:20.704Z,38.77
2019-02-27T01:49:52.535Z,39.43
2019-02-27T01:52:22.868Z,39.90
2019-02-27T01:54:53.133Z,37.97
2019-02-27T01:57:23.427Z,38.27
2019-02-27T01:59:53.698Z,38.83
2019-02-27T02:02:23.996Z,38.53
2019-02-27T02:04:54.364Z,39.17
2019-02-27T02:07:24.644Z,36.43
2019-02-27T02:09:55.788Z,37.97
2019-02-27T02:12:29.349Z,38.33
2019-02-27T02:15:30.669Z,36.97
2019-02-27T02:18:56.891Z,35.83
2019-02-27T02:22:10.213Z,34.23
2019-02-27T02:25:19.920Z,34.23
2019-02-27T02:28:25.919Z,34.23
2019-02-27T02:31:30.333Z,34.33
2019-02-27T02:34:32.921Z,34.93
2019-02-27T02:37:30.238Z,33.80
2019-02-27T02:40:44.626Z,34.20
2019-02-27T02:43:45.362Z,31.93
2019-02-27T02:46:56.305Z,32.63
2019-02-27T02:50:09.143Z,31.17
2019-02-27T02:53:17.380Z,29.47
2019-02-27T02:56:47.062Z,28.97
2019-02-27T02:59:48.996Z,30.23
2019-02-27T03:02:39.922Z,28.63
2019-02-27T03:05:38.109Z,30.23
2019-02-27T03:08:54.961Z,29.40
2019-02-27T03:11:54.014Z,30.37
2019-02-27T03:14:54.677Z,31.47
2019-02-27T03:18:06.584Z,31.57
2019-02-27T03:21:11.073Z,33.00
2019-02-27T03:24:13.534Z,32.37
2019-02-27T03:27:18.819Z,34.73
2019-02-27T03:30:36.155Z,34.77
2019-02-27T03:34:08.104Z,33.03
2019-02-27T03:37:13.077Z,34.37
2019-02-27T03:40:15.567Z,34.17
2019-02-27T03:43:25.914Z,31.97
2019-02-27T03:46:42.992Z,32.70
2019-02-27T03:49:41.854Z,34.33
2019-02-27T03:53:10.878Z,32.37
2019-02-27T03:56:15.138Z,30.80
2019-02-27T03:59:06.043Z,32.50
2019-02-27T04:01:52.597Z,30.33
2019-02-27T04:05:05.129Z,32.53
2019-02-27T04:08:08.761Z,29.67
2019-02-27T04:10:40.434Z,29.57
2019-02-27T04:13:11.334Z,30.33
2019-02-27T04:15:41.674Z,31.67
2019-02-27T04:18:10.304Z,30.20
2019-02-27T04:20:40.652Z,30.93
2019-02-27T04:23:13.019Z,30.63
2019-02-27T04:25:43.336Z,29.90
2019-02-27T04:28:13.777Z,30.47
2019-02-27T04:30:44.097Z,29.33
2019-02-27T04:33:14.436Z,30.60
2019-02-27T04:35:44.779Z,29.30
2019-02-27T04:38:15.097Z,29.57
2019-02-27T04:40:45.331Z,31.03
2019-02-27T04:43:15.682Z,29.63
2019-02-27T04:45:46.798Z,29.57
2019-02-27T04:48:17.917Z,30.17
2019-02-27T04:50:48.263Z,30.23
2019-02-27T04:53:18.560Z,29.07
2019-02-27T04:55:50.556Z,28.73
2019-02-27T04:58:20.924Z,28.30
2019-02-27T05:00:51.198Z,28.47
2019-02-27T05:03:21.463Z,27.97
2019-02-27T05:05:51.806Z,28.53
2019-02-27T05:08:26.804Z,28.20
2019-02-27T05:10:54.241Z,28.33
2019-02-27T05:13:24.610Z,28.33
2019-02-27T05:15:54.944Z,27.83
2019-02-27T05:18:29.287Z,30.27
2019-02-27T05:20:57.200Z,29.43
2019-02-27T05:23:27.560Z,30.50
2019-02-27T05:25:57.848Z,30.07
2019-02-27T05:28:28.202Z,30.23
2019-02-27T05:30:58.499Z,28.80
2019-02-27T05:33:28.986Z,31.27
2019-02-27T05:35:59.353Z,30.67
2019-02-27T05:38:29.641Z,30.50
2019-02-27T05:41:00.595Z,30.03
2019-02-27T05:43:31.100Z,28.47
2019-02-27T05:46:03.756Z,29.60
2019-02-27T05:48:34.107Z,28.60
2019-02-27T05:51:04.952Z,31.13
2019-02-27T05:53:36.402Z,28.77
2019-02-27T05:56:06.688Z,31.33
2019-02-27T05:58:36.975Z,38.43
2019-02-27T06:01:07.331Z,36.07
2019-02-27T06:03:37.703Z,32.47
2019-02-27T06:06:11.562Z,32.93
2019-02-27T06:08:40.058Z,34.23
2019-02-27T06:11:10.379Z,34.00
2019-02-27T06:13:40.693Z,36.60
2019-02-27T06:16:11.000Z,35.23
2019-02-27T06:18:41.326Z,35.17
2019-02-27T06:21:15.541Z,34.60
2019-02-27T06:23:43.762Z,34.80
2019-02-27T06:26:14.092Z,32.20
2019-02-27T06:28:44.542Z,31.43
2019-02-27T06:31:14.908Z,31.03
2019-02-27T06:33:46.936Z,37.93
2019-02-27T06:36:17.228Z,53.50
2019-02-27T06:38:47.580Z,40.03
2019-02-27T06:41:17.935Z,36.10
2019-02-27T06:43:48.353Z,32.30
2019-02-27T06:46:20.073Z,31.67
2019-02-27T06:48:50.625Z,34.63
2019-02-27T06:51:21.013Z,38.70
2019-02-27T06:53:51.321Z,34.53
2019-02-27T06:56:21.593Z,36.60
2019-02-27T06:58:54.427Z,34.77
2019-02-27T07:01:24.717Z,32.57
2019-02-27T07:03:56.367Z,32.53
2019-02-27T07:06:26.732Z,31.77
2019-02-27T07:08:57.039Z,32.37
2019-02-27T07:11:27.343Z,31.73
2019-02-27T07:13:59.207Z,31.97
2019-02-27T07:16:29.554Z,28.77
2019-02-27T07:18:59.952Z,31.57
2019-02-27T07:21:32.947Z,29.57
2019-02-27T07:24:03.572Z,32.33
2019-02-27T07:26:35.000Z,31.17
2019-02-27T07:29:05.383Z,33.10
2019-02-27T07:31:35.597Z,32.83
2019-02-27T07:34:06.070Z,30.93
2019-02-27T07:36:38.527Z,30.67
2019-02-27T07:39:08.517Z,30.47
2019-02-27T07:41:39.404Z,30.77
2019-02-27T07:44:11.006Z,29.43
2019-02-27T07:46:41.331Z,29.87
2019-02-27T07:49:11.574Z,32.63
2019-02-27T07:51:41.955Z,30.53
2019-02-27T07:54:12.366Z,30.20
2019-02-27T07:56:42.705Z,30.50
2019-02-27T07:59:13.079Z,31.77
2019-02-27T08:01:44.119Z,34.63
2019-02-27T08:04:19.064Z,34.60
2019-02-27T08:06:46.621Z,33.57
2019-02-27T08:09:18.922Z,35.80
2019-02-27T08:11:49.181Z,33.93
2019-02-27T08:14:19.526Z,33.43
2019-02-27T08:16:49.868Z,35.07
2019-02-27T08:19:21.388Z,35.57
2019-02-27T08:21:52.734Z,34.43
2019-02-27T08:24:24.855Z,33.27
2019-02-27T08:26:55.476Z,34.53
2019-02-27T08:29:25.836Z,33.63
2019-02-27T08:31:56.129Z,31.10
2019-02-27T08:34:28.273Z,31.73
2019-02-27T08:36:58.694Z,33.30
2019-02-27T08:39:29.109Z,32.17
2019-02-27T08:42:03.138Z,30.73
2019-02-27T08:44:31.662Z,29.53
2019-02-27T08:47:04.111Z,31.70
2019-02-27T08:49:34.104Z,32.30
2019-02-27T08:52:04.540Z,28.47
2019-02-27T08:54:34.918Z,30.20
2019-02-27T08:57:05.304Z,28.57
2019-02-27T08:59:37.021Z,29.83
2019-02-27T09:02:10.044Z,29.23
2019-02-27T09:04:42.857Z,29.60
2019-02-27T09:07:12.591Z,28.57
2019-02-27T09:09:42.972Z,28.53
2019-02-27T09:12:14.018Z,28.50
2019-02-27T09:14:44.534Z,27.20
2019-02-27T09:17:14.928Z,27.53
2019-02-27T09:19:46.403Z,27.10
2019-02-27T09:22:16.929Z,26.67
2019-02-27T09:24:47.351Z,27.33
2019-02-27T09:27:17.735Z,25.87
2019-02-27T09:29:49.395Z,29.10
2019-02-27T09:32:20.473Z,25.47
2019-02-27T09:34:51.077Z,24.87
2019-02-27T09:37:21.366Z,26.33
2019-02-27T09:39:52.094Z,24.63
2019-02-27T09:42:22.563Z,25.10
2019-02-27T09:44:53.020Z,24.67
2019-02-27T09:47:25.749Z,25.07
2019-02-27T09:49:55.563Z,24.73
2019-02-27T09:52:27.839Z,23.40
2019-02-27T09:54:58.065Z,24.80
2019-02-27T09:57:29.274Z,23.87
2019-02-27T10:00:02.986Z,22.97
2019-02-27T10:02:35.272Z,24.60
2019-02-27T10:05:05.845Z,23.27
2019-02-27T10:07:36.240Z,24.33
2019-02-27T10:10:10.234Z,23.40
2019-02-27T10:12:38.892Z,22.90
2019-02-27T10:15:09.311Z,22.30
2019-02-27T10:17:41.136Z,22.40
2019-02-27T10:20:11.636Z,23.23
2019-02-27T10:22:41.977Z,23.63
2019-02-27T10:25:12.533Z,22.83
2019-02-27T10:27:42.877Z,20.33
2019-02-27T10:30:13.234Z,20.47
2019-02-27T10:32:43.558Z,21.43
2019-02-27T10:35:15.268Z,18.23
2019-02-27T10:37:50.525Z,18.07
2019-02-27T10:40:18.721Z,18.40
2019-02-27T10:42:50.391Z,15.33
2019-02-27T10:45:21.031Z,16.03
2019-02-27T10:47:51.456Z,15.30
2019-02-27T10:50:21.787Z,14.90
2019-02-27T10:52:52.074Z,16.33
2019-02-27T10:55:22.515Z,15.47
2019-02-27T10:57:53.455Z,16.73
2019-02-27T11:00:28.711Z,16.17
2019-02-27T11:03:00.836Z,16.47
2019-02-27T11:05:32.554Z,16.23
2019-02-27T11:08:02.936Z,17.67
2019-02-27T11:10:33.344Z,15.90
2019-02-27T11:13:06.724Z,15.90
2019-02-27T11:15:41.100Z,14.63
2019-02-27T11:18:09.417Z,15.30
2019-02-27T11:20:39.743Z,15.40
2019-02-27T11:23:12.408Z,15.63
2019-02-27T11:25:43.760Z,15.33
2019-02-27T11:28:15.716Z,15.60
2019-02-27T11:30:46.270Z,15.30
2019-02-27T11:33:25.760Z,15.10
2019-02-27T11:35:48.702Z,15.80
2019-02-27T11:38:24.207Z,16.17
2019-02-27T11:40:51.255Z,16.17
2019-02-27T11:43:21.594Z,15.67
2019-02-27T11:45:57.793Z,17.23
2019-02-27T11:48:25.239Z,15.53
2019-02-27T11:50:55.603Z,16.23
2019-02-27T11:53:26.992Z,16.27
2019-02-27T11:55:57.475Z,15.80
2019-02-27T11:58:28.041Z,15.30
2019-02-27T12:00:58.446Z,15.93
2019-02-27T12:03:28.792Z,15.60
2019-02-27T12:05:59.088Z,18.13
2019-02-27T12:08:30.276Z,17.00
2019-02-27T12:11:00.864Z,17.73
2019-02-27T12:13:34.875Z,16.73
2019-02-27T12:16:10.634Z,17.82
2019-02-27T12:18:41.503Z,17.17
2019-02-27T12:21:11.805Z,17.90
2019-02-27T12:23:44.185Z,18.30
2019-02-27T12:26:14.137Z,17.43
2019-02-27T12:28:44.587Z,16.93
2019-02-27T12:31:14.871Z,18.30
2019-02-27T12:33:45.254Z,18.40
2019-02-27T12:36:16.078Z,18.87
2019-02-27T12:38:47.620Z,18.73
2019-02-27T12:41:17.865Z,18.40
2019-02-27T12:43:52.206Z,20.08
2019-02-27T12:46:21.146Z,20.00
2019-02-27T12:48:51.681Z,19.30
2019-02-27T12:51:22.004Z,19.33
2019-02-27T12:53:54.620Z,19.17
2019-02-27T12:56:24.388Z,18.63
2019-02-27T12:58:58.748Z,19.17
2019-02-27T13:01:28.364Z,19.13
2019-02-27T13:03:58.663Z,20.73
2019-02-27T13:06:28.976Z,20.47
2019-02-27T13:08:59.307Z,34.77
2019-02-27T13:11:35.504Z,25.50
2019-02-27T13:14:05.838Z,20.73
2019-02-27T13:16:37.154Z,19.73
2019-02-27T13:19:07.476Z,35.57
2019-02-27T13:21:37.826Z,21.57
2019-02-27T13:24:14.988Z,32.97
2019-02-27T13:26:42.723Z,20.47
2019-02-27T13:29:13.124Z,20.63
2019-02-27T13:31:43.585Z,19.77
2019-02-27T13:34:14.563Z,19.77
2019-02-27T13:36:44.968Z,20.12
2019-02-27T13:39:15.473Z,20.57
2019-02-27T13:41:45.872Z,20.63
2019-02-27T13:44:17.175Z,21.50
2019-02-27T13:46:47.461Z,20.30
2019-02-27T13:49:18.631Z,20.77
2019-02-27T13:51:48.948Z,20.08
2019-02-27T13:54:19.361Z,20.12
2019-02-27T13:56:49.794Z,21.07
2019-02-27T13:59:20.211Z,21.10
2019-02-27T14:01:50.503Z,21.60
2019-02-27T14:04:22.639Z,20.77
2019-02-27T14:06:53.151Z,19.80
2019-02-27T14:09:24.543Z,22.60
2019-02-27T14:11:58.418Z,23.37
2019-02-27T14:14:27.194Z,23.23
2019-02-27T14:16:57.552Z,24.40
2019-02-27T14:19:30.521Z,24.57
2019-02-27T14:22:00.839Z,24.47
2019-02-27T14:24:31.172Z,23.80
2019-02-27T14:27:01.567Z,24.40
2019-02-27T14:29:31.916Z,23.92
2019-02-27T14:32:03.230Z,25.08
2019-02-27T14:34:33.571Z,26.43
2019-02-27T14:37:03.905Z,23.63
2019-02-27T14:39:34.383Z,28.47
2019-02-27T14:42:07.803Z,29.75
2019-02-27T14:44:38.196Z,29.17
2019-02-27T14:47:08.497Z,26.77
2019-02-27T14:49:38.843Z,23.60
2019-02-27T14:52:14.295Z,24.82
2019-02-27T14:54:45.987Z,24.57
2019-02-27T14:57:17.394Z,24.50
2019-02-27T14:59:48.479Z,20.62
2019-02-27T15:02:22.048Z,21.15
2019-02-27T15:04:50.951Z,20.77
2019-02-27T15:07:24.196Z,20.27
2019-02-27T15:09:57.050Z,21.37
2019-02-27T15:12:30.160Z,20.53
2019-02-27T15:15:02.750Z,22.27
2019-02-27T15:17:34.437Z,21.15
2019-02-27T15:20:07.234Z,22.90
2019-02-27T15:22:39.244Z,21.63
2019-02-27T15:25:13.307Z,21.48
2019-02-27T15:27:48.328Z,22.47
2019-02-27T15:30:22.140Z,22.62
2019-02-27T15:32:52.582Z,23.57
2019-02-27T15:35:23.098Z,24.12
2019-02-27T15:37:54.860Z,23.07
2019-02-27T15:40:29.652Z,24.67
2019-02-27T15:42:59.826Z,23.57
2019-02-27T15:45:30.628Z,23.60
2019-02-27T15:48:06.494Z,24.63
2019-02-27T15:50:36.237Z,24.03
2019-02-27T15:53:06.789Z,24.37
2019-02-27T15:55:37.928Z,23.90
2019-02-27T15:58:12.428Z,25.30
2019-02-27T16:00:42.778Z,24.07
2019-02-27T16:03:14.861Z,23.70
2019-02-27T16:05:45.429Z,24.50
2019-02-27T16:08:20.152Z,25.27
2019-02-27T16:10:54.766Z,24.67
2019-02-27T16:13:21.768Z,24.47
2019-02-27T16:15:52.333Z,24.60
2019-02-27T16:18:22.899Z,24.87
2019-02-27T16:20:53.442Z,24.87
2019-02-27T16:23:25.462Z,26.33
2019-02-27T16:25:57.154Z,25.00
2019-02-27T16:28:29.668Z,26.13
2019-02-27T16:31:00.037Z,29.17
2019-02-27T16:33:30.672Z,24.57
2019-02-27T16:36:01.403Z,24.13
2019-02-27T16:38:32.610Z,24.00
2019-02-27T16:41:02.951Z,25.40
2019-02-27T16:43:33.386Z,24.70
2019-02-27T16:46:07.678Z,24.47
2019-02-27T16:48:36.075Z,24.80
2019-02-27T16:51:06.467Z,24.70
2019-02-27T16:53:36.890Z,24.20
2019-02-27T16:56:08.269Z,25.27
2019-02-27T16:58:40.046Z,25.33
2019-02-27T17:01:12.940Z,25.97
2019-02-27T17:03:45.157Z,26.77
2019-02-27T17:06:18.240Z,28.07
2019-02-27T17:08:47.847Z,26.80
2019-02-27T17:11:19.793Z,28.10
2019-02-27T17:13:50.394Z,27.30
2019-02-27T17:16:20.902Z,28.07
2019-02-27T17:18:51.198Z,27.30
2019-02-27T17:21:22.563Z,28.67
2019-02-27T17:23:53.587Z,26.90
2019-02-27T17:26:24.094Z,26.97
2019-02-27T17:28:59.267Z,29.27
2019-02-27T17:31:29.705Z,28.40
2019-02-27T17:34:00.164Z,28.03
2019-02-27T17:36:32.110Z,28.93
2019-02-27T17:39:02.575Z,29.23
2019-02-27T17:41:34.629Z,30.37
2019-02-27T17:44:11.078Z,31.27
2019-02-27T17:46:41.494Z,29.20
2019-02-27T17:49:11.842Z,30.37
2019-02-27T17:51:42.456Z,30.07
2019-02-27T17:54:13.178Z,30.63
2019-02-27T17:56:43.501Z,30.40
2019-02-27T17:59:14.893Z,31.13
2019-02-27T18:01:50.982Z,31.13
2019-02-27T18:04:20.968Z,30.67
2019-02-27T18:06:53.066Z,30.30
2019-02-27T18:09:26.184Z,31.57
2019-02-27T18:11:55.394Z,32.40
2019-02-27T18:14:25.783Z,31.70
2019-02-27T18:16:59.250Z,32.07
2019-02-27T18:19:28.526Z,31.40
2019-02-27T18:22:01.733Z,29.87
2019-02-27T18:24:34.114Z,30.63
2019-02-27T18:27:04.443Z,32.00
2019-02-27T18:29:35.049Z,31.50
2019-02-27T18:32:06.596Z,32.13
2019-02-27T18:34:37.404Z,30.27
2019-02-27T18:37:07.872Z,31.03
2019-02-27T18:39:38.334Z,32.50
2019-02-27T18:42:12.143Z,31.00
2019-02-27T18:44:43.612Z,31.77
2019-02-27T18:47:13.995Z,33.40
2019-02-27T18:49:44.438Z,33.23
2019-02-27T18:52:21.202Z,33.83
2019-02-27T18:54:47.119Z,33.10
2019-02-27T18:57:21.381Z,34.07
2019-02-27T18:59:53.441Z,32.70
2019-02-27T19:02:25.215Z,33.67
2019-02-27T19:04:55.599Z,33.97
2019-02-27T19:07:26.043Z,34.23
2019-02-27T19:09:56.471Z,35.07
2019-02-27T19:12:28.677Z,35.73
2019-02-27T19:14:59.326Z,34.37
2019-02-27T19:17:32.141Z,34.47
2019-02-27T19:20:01.845Z,34.50
2019-02-27T19:22:32.791Z,35.70
2019-02-27T19:25:03.335Z,35.30
2019-02-27T19:27:33.762Z,36.17
2019-02-27T19:30:07.184Z,36.40
2019-02-27T19:32:36.959Z,37.57
2019-02-27T19:35:08.594Z,37.20
2019-02-27T19:37:39.806Z,35.50
2019-02-27T19:40:13.247Z,36.13
2019-02-27T19:42:49.682Z,36.67
2019-02-27T19:45:20.207Z,37.53
2019-02-27T19:47:54.773Z,38.27
2019-02-27T19:50:23.375Z,37.87
2019-02-27T19:52:53.820Z,39.13
2019-02-27T19:55:27.301Z,37.70
2019-02-27T19:57:57.988Z,38.27
2019-02-27T20:00:33.780Z,38.73
2019-02-27T20:03:01.570Z,39.37
2019-02-27T20:05:32.480Z,39.53
2019-02-27T20:08:02.964Z,39.77
2019-02-27T20:10:33.452Z,38.20
2019-02-27T20:13:04.026Z,39.47
2019-02-27T20:15:34.332Z,39.47
2019-02-27T20:18:09.576Z,38.50
2019-02-27T20:20:41.151Z,40.83
2019-02-27T20:23:11.729Z,40.63
2019-02-27T20:25:44.191Z,41.60
2019-02-27T20:28:14.449Z,41.40
2019-02-27T20:30:44.869Z,41.07
2019-02-27T20:33:15.445Z,41.73
2019-02-27T20:35:45.940Z,43.00
2019-02-27T20:38:16.994Z,41.50
2019-02-27T20:40:47.452Z,40.43
2019-02-27T20:43:17.926Z,42.03
2019-02-27T20:45:48.313Z,42.57
2019-02-27T20:48:18.614Z,42.07
2019-02-27T20:50:52.223Z,40.50
2019-02-27T20:53:23.268Z,40.83
2019-02-27T20:55:59.444Z,41.00
2019-02-27T20:58:31.566Z,39.60
2019-02-27T21:01:01.905Z,41.30
2019-02-27T21:03:32.306Z,40.90
2019-02-27T21:06:02.675Z,39.47
2019-02-27T21:08:33.294Z,37.63
2019-02-27T21:11:05.170Z,40.67
2019-02-27T21:13:38.243Z,37.00
2019-02-27T21:16:10.627Z,40.27
2019-02-27T21:18:40.809Z,40.73
2019-02-27T21:21:11.093Z,43.03
2019-02-27T21:23:41.563Z,41.57
2019-02-27T21:26:15.061Z,41.60
2019-02-27T21:28:45.374Z,40.30
2019-02-27T21:31:15.767Z,40.70
2019-02-27T21:33:46.540Z,41.07
2019-02-27T21:36:17.095Z,40.77
2019-02-27T21:38:50.374Z,40.00
2019-02-27T21:41:21.796Z,39.00
2019-02-27T21:43:52.106Z,39.40
2019-02-27T21:46:22.529Z,44.40
2019-02-27T21:48:52.941Z,39.90
2019-02-27T21:51:23.356Z,39.03
2019-02-27T21:53:53.799Z,39.40
2019-02-27T21:56:24.223Z,39.33
2019-02-27T21:58:54.641Z,39.03
2019-02-27T22:01:25.035Z,40.67
2019-02-27T22:03:55.548Z,41.77
2019-02-27T22:06:27.423Z,43.07
2019-02-27T22:08:58.995Z,42.20
2019-02-27T22:11:29.317Z,42.13
2019-02-27T22:13:59.692Z,40.87
2019-02-27T22:16:30.618Z,40.30
2019-02-27T22:19:04.292Z,42.47
2019-02-27T22:21:34.870Z,42.83
2019-02-27T22:24:05.208Z,41.90
2019-02-27T22:26:37.576Z,40.63
2019-02-27T22:29:07.745Z,40.73
2019-02-27T22:31:40.521Z,40.07
2019-02-27T22:34:10.128Z,40.53
2019-02-27T22:36:40.396Z,40.13
2019-02-27T22:39:10.768Z,40.50
2019-02-27T22:41:41.829Z,39.67
2019-02-27T22:44:13.861Z,42.13
2019-02-27T22:46:47.778Z,41.30
2019-02-27T22:49:18.320Z,42.50
2019-02-27T22:51:51.337Z,41.70
2019-02-27T22:54:21.693Z,41.93
2019-02-27T22:56:52.060Z,38.53
2019-02-27T22:59:23.057Z,39.97
2019-02-27T23:01:54.659Z,41.47
2019-02-27T23:04:25.456Z,40.20
2019-02-27T23:06:55.766Z,41.40
2019-02-27T23:09:26.593Z,38.80
2019-02-27T23:11:56.841Z,38.47
2019-02-27T23:14:28.700Z,37.27
2019-02-27T23:17:00.641Z,39.20
2019-02-27T23:19:30.955Z,40.17
2019-02-27T23:22:01.344Z,37.23
2019-02-27T23:24:33.203Z,38.67
2019-02-27T23:27:03.536Z,37.13
2019-02-27T23:29:33.943Z,40.70
2019-02-27T23:32:04.425Z,38.77
2019-02-27T23:34:34.829Z,38.77
2019-02-27T23:37:05.313Z,36.07
2019-02-27T23:39:35.665Z,37.77
2019-02-27T23:42:05.941Z,34.50
2019-02-27T23:44:38.796Z,36.83
2019-02-27T23:47:08.537Z,35.17
2019-02-27T23:49:39.696Z,35.43
2019-02-27T23:52:10.711Z,35.37
2019-02-27T23:54:41.142Z,36.90
2019-02-27T23:57:11.476Z,35.70
2019-02-27T23:59:41.770Z,35.73
